sensor_id;sensor_type;location;lat;lon;timestamp;pressure;altitude;pressure_sealevel;temperature;humidity
18819;BME280;9537;45.594;9.294;2023-07-31T00:00:20;99347.34;;;25.00;81.10
18819;BME280;9537;45.594;9.294;2023-07-31T00:01:22;99350.34;;;24.99;81.14
18819;BME280;9537;45.594;9.294;2023-07-31T00:02:22;99343.84;;;24.94;81.36
18819;BME280;9537;45.594;9.294;2023-07-31T00:03:23;99349.56;;;24.88;81.57
18819;BME280;9537;45.594;9.294;2023-07-31T00:04:25;99353.34;;;24.87;81.50
18819;BME280;9537;45.594;9.294;2023-07-31T00:05:25;99352.81;;;24.85;81.57
18819;BME280;9537;45.594;9.294;2023-07-31T00:06:27;99349.84;;;24.81;81.87
18819;BME280;9537;45.594;9.294;2023-07-31T00:07:28;99354.72;;;24.79;81.98
18819;BME280;9537;45.594;9.294;2023-07-31T00:08:30;99350.41;;;24.78;82.25
18819;BME280;9537;45.594;9.294;2023-07-31T00:09:30;99351.75;;;24.76;82.09
18819;BME280;9537;45.594;9.294;2023-07-31T00:10:32;99361.47;;;24.77;82.24
18819;BME280;9537;45.594;9.294;2023-07-31T00:11:33;99350.13;;;24.75;82.21
18819;BME280;9537;45.594;9.294;2023-07-31T00:12:35;99355.81;;;24.73;82.46
18819;BME280;9537;45.594;9.294;2023-07-31T00:13:36;99366.31;;;24.75;82.80
18819;BME280;9537;45.594;9.294;2023-07-31T00:14:39;99358.50;;;24.73;82.52
18819;BME280;9537;45.594;9.294;2023-07-31T00:15:40;99361.22;;;24.73;82.86
18819;BME280;9537;45.594;9.294;2023-07-31T00:16:42;99363.09;;;24.72;83.00
18819;BME280;9537;45.594;9.294;2023-07-31T00:17:42;99355.81;;;24.73;82.59
18819;BME280;9537;45.594;9.294;2023-07-31T00:18:44;99370.91;;;24.74;82.58
18819;BME280;9537;45.594;9.294;2023-07-31T00:19:45;99361.22;;;24.73;82.84
18819;BME280;9537;45.594;9.294;2023-07-31T00:20:49;99358.22;;;24.69;83.21
18819;BME280;9537;45.594;9.294;2023-07-31T00:21:50;99357.72;;;24.67;83.27
18819;BME280;9537;45.594;9.294;2023-07-31T00:22:52;99355.00;;;24.67;83.24
18819;BME280;9537;45.594;9.294;2023-07-31T00:23:52;99358.50;;;24.63;83.65
18819;BME280;9537;45.594;9.294;2023-07-31T00:24:54;99362.84;;;24.64;83.40
18819;BME280;9537;45.594;9.294;2023-07-31T00:25:55;99362.84;;;24.64;83.56
18819;BME280;9537;45.594;9.294;2023-07-31T00:26:56;99355.00;;;24.62;83.45
18819;BME280;9537;45.594;9.294;2023-07-31T00:27:57;99365.00;;;24.62;83.14
18819;BME280;9537;45.594;9.294;2023-07-31T00:28:59;99361.50;;;24.61;83.42
18819;BME280;9537;45.594;9.294;2023-07-31T00:30:01;99366.06;;;24.61;83.56
18819;BME280;9537;45.594;9.294;2023-07-31T00:31:03;99372.56;;;24.60;83.31
18819;BME280;9537;45.594;9.294;2023-07-31T00:32:04;99362.56;;;24.60;83.47
18819;BME280;9537;45.594;9.294;2023-07-31T00:33:06;99370.41;;;24.62;83.36
18819;BME280;9537;45.594;9.294;2023-07-31T00:34:07;99368.50;;;24.62;83.46
18819;BME280;9537;45.594;9.294;2023-07-31T00:35:08;99371.47;;;24.61;84.02
18819;BME280;9537;45.594;9.294;2023-07-31T00:36:09;99370.94;;;24.59;83.95
18819;BME280;9537;45.594;9.294;2023-07-31T00:37:11;99375.81;;;24.57;84.26
18819;BME280;9537;45.594;9.294;2023-07-31T00:38:11;99368.50;;;24.57;84.15
18819;BME280;9537;45.594;9.294;2023-07-31T00:39:13;99370.41;;;24.57;84.13
18819;BME280;9537;45.594;9.294;2023-07-31T00:40:14;99366.91;;;24.56;84.00
18819;BME280;9537;45.594;9.294;2023-07-31T00:41:15;99376.91;;;24.56;84.02
18819;BME280;9537;45.594;9.294;2023-07-31T00:42:16;99373.09;;;24.57;84.03
18819;BME280;9537;45.594;9.294;2023-07-31T00:43:18;99373.91;;;24.57;83.88
18819;BME280;9537;45.594;9.294;2023-07-31T00:44:19;99370.41;;;24.62;83.79
18819;BME280;9537;45.594;9.294;2023-07-31T00:45:23;99375.25;;;24.65;83.95
18819;BME280;9537;45.594;9.294;2023-07-31T00:46:24;99375.25;;;24.65;84.07
18819;BME280;9537;45.594;9.294;2023-07-31T00:47:26;99370.66;;;24.65;83.86
18819;BME280;9537;45.594;9.294;2023-07-31T00:48:27;99366.06;;;24.66;84.15
18819;BME280;9537;45.594;9.294;2023-07-31T00:49:29;99372.56;;;24.65;84.58
18819;BME280;9537;45.594;9.294;2023-07-31T00:50:30;99374.72;;;24.63;84.47
18819;BME280;9537;45.594;9.294;2023-07-31T00:51:32;99372.28;;;24.66;84.48
18819;BME280;9537;45.594;9.294;2023-07-31T00:52:32;99373.38;;;24.65;84.52
18819;BME280;9537;45.594;9.294;2023-07-31T00:53:34;99376.88;;;24.66;84.55
18819;BME280;9537;45.594;9.294;2023-07-31T00:54:36;99376.88;;;24.66;84.49
18819;BME280;9537;45.594;9.294;2023-07-31T00:55:37;99370.13;;;24.63;84.18
18819;BME280;9537;45.594;9.294;2023-07-31T00:56:38;99372.81;;;24.63;84.03
18819;BME280;9537;45.594;9.294;2023-07-31T00:57:42;99366.63;;;24.63;84.51
18819;BME280;9537;45.594;9.294;2023-07-31T00:58:43;99360.97;;;24.59;84.86
18819;BME280;9537;45.594;9.294;2023-07-31T00:59:44;99360.41;;;24.62;84.31
18819;BME280;9537;45.594;9.294;2023-07-31T01:00:48;99358.81;;;24.61;85.01
18819;BME280;9537;45.594;9.294;2023-07-31T01:01:50;99368.78;;;24.61;84.98
18819;BME280;9537;45.594;9.294;2023-07-31T01:02:51;99366.63;;;24.58;84.96
18819;BME280;9537;45.594;9.294;2023-07-31T01:03:53;99362.06;;;24.58;85.10
18819;BME280;9537;45.594;9.294;2023-07-31T01:04:54;99366.34;;;24.59;85.17
18819;BME280;9537;45.594;9.294;2023-07-31T01:06:14;99373.09;;;24.62;84.71
18819;BME280;9537;45.594;9.294;2023-07-31T01:07:20;99370.13;;;24.63;85.12
18819;BME280;9537;45.594;9.294;2023-07-31T01:08:30;99368.25;;;24.64;84.72
18819;BME280;9537;45.594;9.294;2023-07-31T01:09:36;99372.81;;;24.63;84.89
18819;BME280;9537;45.594;9.294;2023-07-31T01:10:46;99369.88;;;24.65;84.89
18819;BME280;9537;45.594;9.294;2023-07-31T01:11:52;99368.50;;;24.62;85.18
18819;BME280;9537;45.594;9.294;2023-07-31T01:12:56;99361.22;;;24.63;84.80
18819;BME280;9537;45.594;9.294;2023-07-31T01:13:58;99363.91;;;24.63;85.02
18819;BME280;9537;45.594;9.294;2023-07-31T01:15:04;99356.09;;;24.61;84.75
18819;BME280;9537;45.594;9.294;2023-07-31T01:16:06;99361.75;;;24.60;84.72
18819;BME280;9537;45.594;9.294;2023-07-31T01:17:08;99357.16;;;24.60;84.50
18819;BME280;9537;45.594;9.294;2023-07-31T01:18:08;99354.22;;;24.62;84.36
18819;BME280;9537;45.594;9.294;2023-07-31T01:19:11;99349.63;;;24.62;83.97
18819;BME280;9537;45.594;9.294;2023-07-31T01:20:16;99355.00;;;24.62;84.17
18819;BME280;9537;45.594;9.294;2023-07-31T01:21:28;99353.91;;;24.63;84.19
18819;BME280;9537;45.594;9.294;2023-07-31T01:22:49;99353.41;;;24.61;84.17
18819;BME280;9537;45.594;9.294;2023-07-31T01:24:16;99358.25;;;24.64;83.75
18819;BME280;9537;45.594;9.294;2023-07-31T01:25:45;99352.84;;;24.64;83.77
18819;BME280;9537;45.594;9.294;2023-07-31T01:26:49;99351.75;;;24.65;83.82
18819;BME280;9537;45.594;9.294;2023-07-31T01:27:59;99354.22;;;24.67;83.89
18819;BME280;9537;45.594;9.294;2023-07-31T01:29:07;99359.06;;;24.65;83.90
18819;BME280;9537;45.594;9.294;2023-07-31T01:30:14;99357.16;;;24.65;83.57
18819;BME280;9537;45.594;9.294;2023-07-31T01:31:21;99355.00;;;24.62;83.76
18819;BME280;9537;45.594;9.294;2023-07-31T01:32:24;99358.81;;;24.61;83.46
18819;BME280;9537;45.594;9.294;2023-07-31T01:33:27;99357.72;;;24.62;83.61
18819;BME280;9537;45.594;9.294;2023-07-31T01:34:30;99360.66;;;24.61;83.67
18819;BME280;9537;45.594;9.294;2023-07-31T01:35:31;99360.66;;;24.61;83.64
18819;BME280;9537;45.594;9.294;2023-07-31T01:36:33;99360.16;;;24.59;83.84
18819;BME280;9537;45.594;9.294;2023-07-31T01:37:34;99359.88;;;24.60;83.99
18819;BME280;9537;45.594;9.294;2023-07-31T01:38:36;99364.22;;;24.61;83.73
18819;BME280;9537;45.594;9.294;2023-07-31T01:39:36;99359.88;;;24.60;83.89
18819;BME280;9537;45.594;9.294;2023-07-31T01:40:41;99356.38;;;24.60;84.00
18819;BME280;9537;45.594;9.294;2023-07-31T01:41:43;99358.81;;;24.61;83.85
18819;BME280;9537;45.594;9.294;2023-07-31T01:42:45;99358.81;;;24.61;83.63
18819;BME280;9537;45.594;9.294;2023-07-31T01:43:46;99356.38;;;24.60;84.30
18819;BME280;9537;45.594;9.294;2023-07-31T01:44:48;99357.16;;;24.60;83.80
18819;BME280;9537;45.594;9.294;2023-07-31T01:45:49;99352.56;;;24.61;84.00
18819;BME280;9537;45.594;9.294;2023-07-31T01:46:50;99358.25;;;24.59;83.76
18819;BME280;9537;45.594;9.294;2023-07-31T01:47:51;99356.66;;;24.58;83.83
18819;BME280;9537;45.594;9.294;2023-07-31T01:48:53;99360.16;;;24.59;83.91
18819;BME280;9537;45.594;9.294;2023-07-31T01:49:53;99354.75;;;24.59;83.68
18819;BME280;9537;45.594;9.294;2023-07-31T01:50:54;99353.94;;;24.58;83.98
18819;BME280;9537;45.594;9.294;2023-07-31T01:51:56;99357.16;;;24.60;83.58
18819;BME280;9537;45.594;9.294;2023-07-31T01:52:56;99360.41;;;24.62;83.76
18819;BME280;9537;45.594;9.294;2023-07-31T01:53:58;99361.75;;;24.65;83.49
18819;BME280;9537;45.594;9.294;2023-07-31T01:54:59;99353.91;;;24.63;83.84
18819;BME280;9537;45.594;9.294;2023-07-31T01:56:00;99358.50;;;24.63;83.87
18819;BME280;9537;45.594;9.294;2023-07-31T01:57:03;99355.00;;;24.62;83.73
18819;BME280;9537;45.594;9.294;2023-07-31T01:58:04;99356.09;;;24.61;84.10
18819;BME280;9537;45.594;9.294;2023-07-31T01:59:05;99352.31;;;24.62;83.44
18819;BME280;9537;45.594;9.294;2023-07-31T02:00:07;99350.97;;;24.60;83.30
18819;BME280;9537;45.594;9.294;2023-07-31T02:01:08;99358.81;;;24.61;83.79
18819;BME280;9537;45.594;9.294;2023-07-31T02:02:10;99350.16;;;24.59;83.71
18819;BME280;9537;45.594;9.294;2023-07-31T02:03:11;99353.66;;;24.60;83.41
18819;BME280;9537;45.594;9.294;2023-07-31T02:04:13;99351.50;;;24.62;83.33
18819;BME280;9537;45.594;9.294;2023-07-31T02:05:13;99351.50;;;24.62;83.66
18819;BME280;9537;45.594;9.294;2023-07-31T02:06:15;99353.41;;;24.61;83.73
18819;BME280;9537;45.594;9.294;2023-07-31T02:07:16;99343.16;;;24.58;83.68
18819;BME280;9537;45.594;9.294;2023-07-31T02:08:17;99357.97;;;24.61;83.83
18819;BME280;9537;45.594;9.294;2023-07-31T02:09:18;99350.69;;;24.61;83.55
18819;BME280;9537;45.594;9.294;2023-07-31T02:10:20;99350.97;;;24.60;83.47
18819;BME280;9537;45.594;9.294;2023-07-31T02:11:20;99347.16;;;24.61;83.83
18819;BME280;9537;45.594;9.294;2023-07-31T02:12:23;99350.16;;;24.59;83.55
18819;BME280;9537;45.594;9.294;2023-07-31T02:13:24;99348.56;;;24.58;84.19
18819;BME280;9537;45.594;9.294;2023-07-31T02:14:26;99345.56;;;24.55;84.52
18819;BME280;9537;45.594;9.294;2023-07-31T02:15:27;99345.56;;;24.55;84.10
18819;BME280;9537;45.594;9.294;2023-07-31T02:16:28;99345.56;;;24.55;84.09
18819;BME280;9537;45.594;9.294;2023-07-31T02:17:29;99350.97;;;24.55;84.27
18819;BME280;9537;45.594;9.294;2023-07-31T02:18:31;99357.47;;;24.54;83.92
18819;BME280;9537;45.594;9.294;2023-07-31T02:19:32;99353.94;;;24.53;84.14
18819;BME280;9537;45.594;9.294;2023-07-31T02:20:34;99362.59;;;24.50;84.07
18819;BME280;9537;45.594;9.294;2023-07-31T02:21:35;99353.69;;;24.49;83.92
18819;BME280;9537;45.594;9.294;2023-07-31T02:22:36;99352.06;;;24.48;84.22
18819;BME280;9537;45.594;9.294;2023-07-31T02:23:37;99355.84;;;24.47;84.19
18819;BME280;9537;45.594;9.294;2023-07-31T02:24:38;99353.41;;;24.46;84.08
18819;BME280;9537;45.594;9.294;2023-07-31T02:25:40;99344.78;;;24.44;84.62
18819;BME280;9537;45.594;9.294;2023-07-31T02:26:41;99353.13;;;24.42;84.48
18819;BME280;9537;45.594;9.294;2023-07-31T02:27:44;99355.00;;;24.42;84.26
18819;BME280;9537;45.594;9.294;2023-07-31T02:28:45;99354.47;;;24.40;84.64
18819;BME280;9537;45.594;9.294;2023-07-31T02:29:46;99353.09;;;24.37;84.55
18819;BME280;9537;45.594;9.294;2023-07-31T02:30:47;99344.22;;;24.37;84.89
18819;BME280;9537;45.594;9.294;2023-07-31T02:31:49;99343.41;;;24.36;85.06
18819;BME280;9537;45.594;9.294;2023-07-31T02:32:50;99349.59;;;24.37;84.85
18819;BME280;9537;45.594;9.294;2023-07-31T02:33:51;99339.91;;;24.36;84.81
18819;BME280;9537;45.594;9.294;2023-07-31T02:34:52;99339.91;;;24.36;84.53
18819;BME280;9537;45.594;9.294;2023-07-31T02:35:54;99343.66;;;24.35;84.75
18819;BME280;9537;45.594;9.294;2023-07-31T02:36:54;99337.75;;;24.33;85.05
18819;BME280;9537;45.594;9.294;2023-07-31T02:37:56;99339.09;;;24.30;84.75
18819;BME280;9537;45.594;9.294;2023-07-31T02:38:57;99341.50;;;24.26;85.12
18819;BME280;9537;45.594;9.294;2023-07-31T02:39:58;99336.09;;;24.26;85.32
18819;BME280;9537;45.594;9.294;2023-07-31T02:40:59;99346.09;;;24.26;85.28
18819;BME280;9537;45.594;9.294;2023-07-31T02:42:01;99345.84;;;24.27;85.16
18819;BME280;9537;45.594;9.294;2023-07-31T02:43:03;99342.03;;;24.23;85.38
18819;BME280;9537;45.594;9.294;2023-07-31T02:44:04;99348.81;;;24.21;85.42
18819;BME280;9537;45.594;9.294;2023-07-31T02:45:06;99343.13;;;24.22;85.66
18819;BME280;9537;45.594;9.294;2023-07-31T02:46:07;99340.44;;;24.22;85.80
18819;BME280;9537;45.594;9.294;2023-07-31T02:47:09;99342.34;;;24.22;85.95
18819;BME280;9537;45.594;9.294;2023-07-31T02:48:10;99348.53;;;24.22;86.31
18819;BME280;9537;45.594;9.294;2023-07-31T02:49:11;99338.84;;;24.21;86.48
18819;BME280;9537;45.594;9.294;2023-07-31T02:50:12;99340.97;;;24.19;86.70
18819;BME280;9537;45.594;9.294;2023-07-31T02:51:14;99337.47;;;24.19;86.15
18819;BME280;9537;45.594;9.294;2023-07-31T02:52:15;99338.53;;;24.18;86.05
18819;BME280;9537;45.594;9.294;2023-07-31T02:53:16;99338.28;;;24.14;86.10
18819;BME280;9537;45.594;9.294;2023-07-31T02:54:17;99345.81;;;24.12;86.60
18819;BME280;9537;45.594;9.294;2023-07-31T02:55:21;99343.66;;;24.14;86.52
18819;BME280;9537;45.594;9.294;2023-07-31T02:56:21;99333.69;;;24.15;86.32
18819;BME280;9537;45.594;9.294;2023-07-31T02:57:23;99346.38;;;24.14;85.80
18819;BME280;9537;45.594;9.294;2023-07-31T02:58:25;99342.06;;;24.13;85.90
18819;BME280;9537;45.594;9.294;2023-07-31T02:59:28;99337.72;;;24.12;85.46
18819;BME280;9537;45.594;9.294;2023-07-31T03:00:28;99344.50;;;24.10;85.66
18819;BME280;9537;45.594;9.294;2023-07-31T03:01:31;99339.34;;;24.08;86.04
18819;BME280;9537;45.594;9.294;2023-07-31T03:02:31;99341.25;;;24.08;85.77
18819;BME280;9537;45.594;9.294;2023-07-31T03:03:33;99350.16;;;24.08;85.67
18819;BME280;9537;45.594;9.294;2023-07-31T03:04:34;99339.34;;;24.08;86.00
18819;BME280;9537;45.594;9.294;2023-07-31T03:05:35;99347.44;;;24.08;85.62
18819;BME280;9537;45.594;9.294;2023-07-31T03:06:36;99349.88;;;24.04;85.99
18819;BME280;9537;45.594;9.294;2023-07-31T03:07:38;99343.69;;;24.04;85.72
18819;BME280;9537;45.594;9.294;2023-07-31T03:08:38;99348.00;;;24.05;86.05
18819;BME280;9537;45.594;9.294;2023-07-31T03:09:40;99340.16;;;24.03;86.00
18819;BME280;9537;45.594;9.294;2023-07-31T03:10:41;99341.78;;;24.04;85.57
18819;BME280;9537;45.594;9.294;2023-07-31T03:11:43;99340.16;;;24.03;85.48
18819;BME280;9537;45.594;9.294;2023-07-31T03:12:46;99341.78;;;24.04;85.66
18819;BME280;9537;45.594;9.294;2023-07-31T03:13:49;99341.53;;;24.01;85.83
18819;BME280;9537;45.594;9.294;2023-07-31T03:14:50;99338.84;;;24.01;85.61
18819;BME280;9537;45.594;9.294;2023-07-31T03:15:51;99346.09;;;23.95;86.26
18819;BME280;9537;45.594;9.294;2023-07-31T03:16:53;99332.88;;;23.94;86.27
18819;BME280;9537;45.594;9.294;2023-07-31T03:17:54;99339.88;;;23.95;86.08
18819;BME280;9537;45.594;9.294;2023-07-31T03:18:55;99333.69;;;23.94;85.86
18819;BME280;9537;45.594;9.294;2023-07-31T03:19:57;99334.47;;;23.95;86.07
18819;BME280;9537;45.594;9.294;2023-07-31T03:20:57;99332.88;;;23.94;85.87
18819;BME280;9537;45.594;9.294;2023-07-31T03:21:59;99336.91;;;23.91;86.30
18819;BME280;9537;45.594;9.294;2023-07-31T03:23:00;99338.81;;;23.91;86.10
18819;BME280;9537;45.594;9.294;2023-07-31T03:24:02;99333.66;;;23.89;86.24
18819;BME280;9537;45.594;9.294;2023-07-31T03:25:03;99335.31;;;23.90;86.41
18819;BME280;9537;45.594;9.294;2023-07-31T03:26:06;99337.19;;;23.90;86.49
18819;BME280;9537;45.594;9.294;2023-07-31T03:27:06;99333.94;;;23.88;86.59
18819;BME280;9537;45.594;9.294;2023-07-31T03:28:08;99336.38;;;23.84;86.56
18819;BME280;9537;45.594;9.294;2023-07-31T03:29:10;99337.47;;;23.78;86.79
18819;BME280;9537;45.594;9.294;2023-07-31T03:30:12;99338.50;;;23.77;87.15
18819;BME280;9537;45.594;9.294;2023-07-31T03:31:13;99336.91;;;23.76;87.30
18819;BME280;9537;45.594;9.294;2023-07-31T03:32:14;99338.19;;;23.68;87.45
18819;BME280;9537;45.594;9.294;2023-07-31T03:33:15;99345.25;;;23.74;86.96
18819;BME280;9537;45.594;9.294;2023-07-31T03:34:16;99343.63;;;23.73;86.81
18819;BME280;9537;45.594;9.294;2023-07-31T03:35:17;99342.03;;;23.72;86.89
18819;BME280;9537;45.594;9.294;2023-07-31T03:36:19;99340.13;;;23.73;87.13
18819;BME280;9537;45.594;9.294;2023-07-31T03:37:21;99343.91;;;23.72;87.28
18819;BME280;9537;45.594;9.294;2023-07-31T03:38:21;99343.09;;;23.76;87.00
18819;BME280;9537;45.594;9.294;2023-07-31T03:39:23;99346.88;;;23.75;87.32
18819;BME280;9537;45.594;9.294;2023-07-31T03:40:24;99343.34;;;23.75;87.25
18819;BME280;9537;45.594;9.294;2023-07-31T03:41:25;99339.59;;;23.76;86.94
18819;BME280;9537;45.594;9.294;2023-07-31T03:42:26;99335.00;;;23.76;86.98
18819;BME280;9537;45.594;9.294;2023-07-31T03:43:28;99340.66;;;23.75;87.50
18819;BME280;9537;45.594;9.294;2023-07-31T03:44:30;99346.88;;;23.75;87.35
18819;BME280;9537;45.594;9.294;2023-07-31T03:45:32;99346.06;;;23.75;87.29
18819;BME280;9537;45.594;9.294;2023-07-31T03:46:32;99347.44;;;23.72;87.31
18819;BME280;9537;45.594;9.294;2023-07-31T03:47:36;99343.34;;;23.70;87.31
18819;BME280;9537;45.594;9.294;2023-07-31T03:48:37;99341.19;;;23.67;87.55
18819;BME280;9537;45.594;9.294;2023-07-31T03:49:38;99343.59;;;23.68;87.94
18819;BME280;9537;45.594;9.294;2023-07-31T03:50:39;99351.44;;;23.70;87.71
18819;BME280;9537;45.594;9.294;2023-07-31T03:51:41;99350.38;;;23.71;87.55
18819;BME280;9537;45.594;9.294;2023-07-31T03:52:42;99348.72;;;23.70;87.47
18819;BME280;9537;45.594;9.294;2023-07-31T03:53:44;99354.38;;;23.68;87.37
18819;BME280;9537;45.594;9.294;2023-07-31T03:54:45;99350.88;;;23.68;87.04
18819;BME280;9537;45.594;9.294;2023-07-31T03:55:46;99346.28;;;23.68;87.39
18819;BME280;9537;45.594;9.294;2023-07-31T03:56:47;99352.78;;;23.67;87.03
18819;BME280;9537;45.594;9.294;2023-07-31T03:57:49;99350.88;;;23.68;87.49
18819;BME280;9537;45.594;9.294;2023-07-31T03:58:49;99354.66;;;23.67;87.62
18819;BME280;9537;45.594;9.294;2023-07-31T03:59:52;99347.63;;;23.66;87.37
18819;BME280;9537;45.594;9.294;2023-07-31T04:00:53;99353.56;;;23.63;87.47
18819;BME280;9537;45.594;9.294;2023-07-31T04:01:55;99346.56;;;23.61;87.35
18819;BME280;9537;45.594;9.294;2023-07-31T04:02:55;99355.44;;;23.62;87.52
18819;BME280;9537;45.594;9.294;2023-07-31T04:03:57;99352.75;;;23.62;87.73
18819;BME280;9537;45.594;9.294;2023-07-31T04:04:58;99350.06;;;23.62;87.60
18819;BME280;9537;45.594;9.294;2023-07-31T04:06:00;99346.28;;;23.63;87.38
18819;BME280;9537;45.594;9.294;2023-07-31T04:07:00;99349.81;;;23.64;87.66
18819;BME280;9537;45.594;9.294;2023-07-31T04:08:02;99347.59;;;23.60;87.80
18819;BME280;9537;45.594;9.294;2023-07-31T04:09:03;99350.31;;;23.60;87.92
18819;BME280;9537;45.594;9.294;2023-07-31T04:10:05;99353.28;;;23.59;87.65
18819;BME280;9537;45.594;9.294;2023-07-31T04:11:06;99355.44;;;23.57;88.06
18819;BME280;9537;45.594;9.294;2023-07-31T04:12:08;99352.72;;;23.57;87.73
18819;BME280;9537;45.594;9.294;2023-07-31T04:13:08;99350.03;;;23.57;87.87
18819;BME280;9537;45.594;9.294;2023-07-31T04:14:10;99350.03;;;23.57;87.81
18819;BME280;9537;45.594;9.294;2023-07-31T04:15:12;99351.94;;;23.56;87.98
18819;BME280;9537;45.594;9.294;2023-07-31T04:16:14;99350.84;;;23.52;87.83
18819;BME280;9537;45.594;9.294;2023-07-31T04:17:15;99345.19;;;23.54;88.04
18819;BME280;9537;45.594;9.294;2023-07-31T04:18:17;99354.34;;;23.53;88.17
18819;BME280;9537;45.594;9.294;2023-07-31T04:19:17;99344.34;;;23.48;88.06
18819;BME280;9537;45.594;9.294;2023-07-31T04:20:19;99347.59;;;23.50;88.47
18819;BME280;9537;45.594;9.294;2023-07-31T04:21:20;99344.91;;;23.50;88.38
18819;BME280;9537;45.594;9.294;2023-07-31T04:22:21;99344.91;;;23.50;88.26
18819;BME280;9537;45.594;9.294;2023-07-31T04:23:22;99350.28;;;23.50;88.11
18819;BME280;9537;45.594;9.294;2023-07-31T04:24:24;99348.66;;;23.49;88.57
18819;BME280;9537;45.594;9.294;2023-07-31T04:25:24;99344.09;;;23.50;88.31
18819;BME280;9537;45.594;9.294;2023-07-31T04:26:25;99351.09;;;23.51;88.63
18819;BME280;9537;45.594;9.294;2023-07-31T04:27:27;99353.53;;;23.47;88.66
18819;BME280;9537;45.594;9.294;2023-07-31T04:28:27;99351.63;;;23.48;88.72
18819;BME280;9537;45.594;9.294;2023-07-31T04:29:31;99351.34;;;23.49;88.75
18819;BME280;9537;45.594;9.294;2023-07-31T04:30:34;99349.50;;;23.50;88.52
18819;BME280;9537;45.594;9.294;2023-07-31T04:31:36;99349.50;;;23.50;88.84
18819;BME280;9537;45.594;9.294;2023-07-31T04:32:37;99348.94;;;23.48;88.59
18819;BME280;9537;45.594;9.294;2023-07-31T04:33:39;99346.78;;;23.45;88.97
18819;BME280;9537;45.594;9.294;2023-07-31T04:34:39;99348.13;;;23.47;88.76
18819;BME280;9537;45.594;9.294;2023-07-31T04:35:41;99352.72;;;23.47;88.92
18819;BME280;9537;45.594;9.294;2023-07-31T04:36:42;99351.59;;;23.43;89.14
18819;BME280;9537;45.594;9.294;2023-07-31T04:37:43;99349.72;;;23.43;89.17
18819;BME280;9537;45.594;9.294;2023-07-31T04:38:46;99353.78;;;23.46;88.75
18819;BME280;9537;45.594;9.294;2023-07-31T04:39:48;99351.06;;;23.46;89.04
18819;BME280;9537;45.594;9.294;2023-07-31T04:40:49;99352.72;;;23.47;88.92
18819;BME280;9537;45.594;9.294;2023-07-31T04:41:50;99348.38;;;23.46;89.13
18819;BME280;9537;45.594;9.294;2023-07-31T04:42:51;99354.84;;;23.45;89.44
18819;BME280;9537;45.594;9.294;2023-07-31T04:43:53;99357.56;;;23.45;89.19
18819;BME280;9537;45.594;9.294;2023-07-31T04:44:53;99366.16;;;23.42;89.82
18819;BME280;9537;45.594;9.294;2023-07-31T04:45:56;99368.88;;;23.42;89.42
18819;BME280;9537;45.594;9.294;2023-07-31T04:46:58;99364.03;;;23.44;89.72
18819;BME280;9537;45.594;9.294;2023-07-31T04:48:03;99368.34;;;23.45;89.58
18819;BME280;9537;45.594;9.294;2023-07-31T04:49:03;99374.28;;;23.47;89.58
18819;BME280;9537;45.594;9.294;2023-07-31T04:50:06;99371.84;;;23.50;89.83
18819;BME280;9537;45.594;9.294;2023-07-31T04:51:07;99372.66;;;23.51;89.43
18819;BME280;9537;45.594;9.294;2023-07-31T04:52:09;99375.59;;;23.49;90.11
18819;BME280;9537;45.594;9.294;2023-07-31T04:53:10;99383.44;;;23.51;89.89
18819;BME280;9537;45.594;9.294;2023-07-31T04:54:12;99383.44;;;23.51;89.85
18819;BME280;9537;45.594;9.294;2023-07-31T04:55:13;99382.63;;;23.50;89.99
18819;BME280;9537;45.594;9.294;2023-07-31T04:56:13;99390.97;;;23.49;89.83
18819;BME280;9537;45.594;9.294;2023-07-31T04:57:15;99385.06;;;23.52;90.00
18819;BME280;9537;45.594;9.294;2023-07-31T04:58:16;99394.22;;;23.51;90.44
18819;BME280;9537;45.594;9.294;2023-07-31T04:59:18;99386.38;;;23.49;90.28
18819;BME280;9537;45.594;9.294;2023-07-31T05:00:19;99385.34;;;23.50;90.35
18819;BME280;9537;45.594;9.294;2023-07-31T05:01:22;99389.91;;;23.50;90.88
18819;BME280;9537;45.594;9.294;2023-07-31T05:02:23;99386.13;;;23.51;90.85
18819;BME280;9537;45.594;9.294;2023-07-31T05:03:24;99387.22;;;23.50;91.08
18819;BME280;9537;45.594;9.294;2023-07-31T05:04:25;99388.84;;;23.51;91.18
18819;BME280;9537;45.594;9.294;2023-07-31T05:05:27;99385.88;;;23.52;91.18
18819;BME280;9537;45.594;9.294;2023-07-31T05:06:28;99386.69;;;23.53;91.50
18819;BME280;9537;45.594;9.294;2023-07-31T05:07:29;99388.31;;;23.54;91.55
18819;BME280;9537;45.594;9.294;2023-07-31T05:08:30;99395.31;;;23.55;91.22
18819;BME280;9537;45.594;9.294;2023-07-31T05:09:31;99398.00;;;23.55;91.68
18819;BME280;9537;45.594;9.294;2023-07-31T05:10:33;99397.19;;;23.54;91.91
18819;BME280;9537;45.594;9.294;2023-07-31T05:11:33;99398.28;;;23.53;92.14
18819;BME280;9537;45.594;9.294;2023-07-31T05:12:35;99396.38;;;23.54;92.60
18819;BME280;9537;45.594;9.294;2023-07-31T05:13:36;99400.69;;;23.55;92.69
18819;BME280;9537;45.594;9.294;2023-07-31T05:14:37;99410.16;;;23.57;92.55
18819;BME280;9537;45.594;9.294;2023-07-31T05:15:38;99401.00;;;23.58;92.66
18819;BME280;9537;45.594;9.294;2023-07-31T05:16:41;99398.03;;;23.60;92.70
18819;BME280;9537;45.594;9.294;2023-07-31T05:17:42;99401.28;;;23.62;93.17
18819;BME280;9537;45.594;9.294;2023-07-31T05:18:44;99403.16;;;23.61;93.25
18819;BME280;9537;45.594;9.294;2023-07-31T05:19:44;99408.28;;;23.63;92.88
18819;BME280;9537;45.594;9.294;2023-07-31T05:20:46;99408.84;;;23.65;93.25
18819;BME280;9537;45.594;9.294;2023-07-31T05:21:47;99409.63;;;23.66;92.90
18819;BME280;9537;45.594;9.294;2023-07-31T05:22:47;99413.69;;;23.68;92.92
18819;BME280;9537;45.594;9.294;2023-07-31T05:23:49;99407.22;;;23.69;92.80
18819;BME280;9537;45.594;9.294;2023-07-31T05:24:50;99411.28;;;23.72;92.62
18819;BME280;9537;45.594;9.294;2023-07-31T05:25:51;99414.56;;;23.74;93.16
18819;BME280;9537;45.594;9.294;2023-07-31T05:26:52;99417.25;;;23.74;93.25
18819;BME280;9537;45.594;9.294;2023-07-31T05:27:53;99422.38;;;23.75;93.95
18819;BME280;9537;45.594;9.294;2023-07-31T05:28:54;99418.59;;;23.76;94.28
18819;BME280;9537;45.594;9.294;2023-07-31T05:29:55;99414.00;;;23.77;94.18
18819;BME280;9537;45.594;9.294;2023-07-31T05:30:59;99424.00;;;23.76;94.72
18819;BME280;9537;45.594;9.294;2023-07-31T05:32:01;99418.59;;;23.76;95.08